createdAt,value
2022-12-22T00:01:05.592Z,32.90
2022-12-22T00:03:52.131Z,36.90
2022-12-22T00:06:38.099Z,41.33
2022-12-22T00:09:24.076Z,38.37
2022-12-22T00:12:10.014Z,28.37
2022-12-22T00:14:55.902Z,23.27
2022-12-22T00:17:46.033Z,29.13
2022-12-22T00:20:36.429Z,32.60
2022-12-22T00:23:22.437Z,26.67
2022-12-22T00:26:08.373Z,24.90
2022-12-22T00:28:54.634Z,22.97
2022-12-22T00:31:40.627Z,32.40
2022-12-22T00:34:35.937Z,30.33
2022-12-22T00:37:21.622Z,23.90
2022-12-22T00:40:07.948Z,19.90
2022-12-22T00:42:54.117Z,19.90
2022-12-22T00:45:39.820Z,21.37
2022-12-22T00:48:25.794Z,20.23
2022-12-22T00:51:11.305Z,19.80
2022-12-22T00:53:57.123Z,15.70
2022-12-22T00:56:42.749Z,18.90
2022-12-22T00:59:28.629Z,15.70
2022-12-22T01:02:14.889Z,28.43
2022-12-22T01:05:00.749Z,35.43
2022-12-22T01:07:46.604Z,35.40
2022-12-22T01:10:32.804Z,34.97
2022-12-22T01:13:18.819Z,36.57
2022-12-22T01:16:04.725Z,39.80
2022-12-22T01:18:50.695Z,38.40
2022-12-22T01:21:36.249Z,45.20
2022-12-22T01:24:22.074Z,42.83
2022-12-22T01:27:07.965Z,41.10
2022-12-22T01:29:53.968Z,49.67
2022-12-22T01:32:40.036Z,45.00
2022-12-22T01:35:28.356Z,47.50
2022-12-22T01:38:13.989Z,51.47
2022-12-22T01:40:59.985Z,48.07
2022-12-22T01:43:46.046Z,43.30
2022-12-22T01:46:42.449Z,43.37
2022-12-22T01:49:29.423Z,41.47
2022-12-22T01:52:15.179Z,43.70
2022-12-22T01:55:01.227Z,46.60
2022-12-22T01:57:46.864Z,49.13
2022-12-22T02:00:32.964Z,50.43
2022-12-22T02:03:20.033Z,46.40
2022-12-22T02:06:17.460Z,43.90
2022-12-22T02:09:03.436Z,42.77
2022-12-22T02:11:59.464Z,40.93
2022-12-22T02:15:02.781Z,34.03
2022-12-22T02:17:57.673Z,41.93
2022-12-22T02:20:43.350Z,41.33
2022-12-22T02:23:38.310Z,42.33
2022-12-22T02:26:42.091Z,47.33
2022-12-22T02:29:28.139Z,43.27
2022-12-22T02:32:13.956Z,44.93
2022-12-22T02:34:59.907Z,36.83
2022-12-22T02:37:50.485Z,40.07
2022-12-22T02:40:41.358Z,37.60
2022-12-22T02:43:47.541Z,37.90
2022-12-22T02:46:33.330Z,35.00
2022-12-22T02:49:30.352Z,40.17
2022-12-22T02:52:17.469Z,35.30
2022-12-22T02:55:03.621Z,35.27
2022-12-22T02:57:49.461Z,42.37
2022-12-22T03:00:35.341Z,29.27
2022-12-22T03:03:21.822Z,20.27
2022-12-22T03:06:07.661Z,12.17
2022-12-22T03:08:53.541Z,16.10
2022-12-22T03:11:39.308Z,18.93
2022-12-22T03:14:25.305Z,22.17
2022-12-22T03:17:11.039Z,23.10
2022-12-22T03:19:56.956Z,34.20
2022-12-22T03:22:42.797Z,24.63
2022-12-22T03:25:28.706Z,29.63
2022-12-22T03:27:55.932Z,27.20
2022-12-22T03:30:23.047Z,28.17
2022-12-22T03:32:50.212Z,28.13
2022-12-22T03:35:17.351Z,26.03
2022-12-22T03:37:44.523Z,25.67
2022-12-22T03:40:11.868Z,19.40
2022-12-22T03:42:57.589Z,19.93
2022-12-22T03:45:43.612Z,23.53
2022-12-22T03:48:10.737Z,22.60
2022-12-22T03:50:37.864Z,37.97
2022-12-22T03:53:05.240Z,37.33
2022-12-22T03:55:32.396Z,33.13
2022-12-22T03:57:59.522Z,42.87
2022-12-22T04:00:26.731Z,42.20
2022-12-22T04:02:54.027Z,41.43
2022-12-22T04:05:21.280Z,34.03
2022-12-22T04:07:48.464Z,39.20
2022-12-22T04:10:34.366Z,37.93
2022-12-22T04:13:01.688Z,39.50
2022-12-22T04:15:29.862Z,37.13
2022-12-22T04:17:57.124Z,35.77
2022-12-22T04:20:26.852Z,32.00
2022-12-22T04:22:54.392Z,33.10
2022-12-22T04:25:21.505Z,31.93
2022-12-22T04:27:48.709Z,28.10
2022-12-22T04:30:15.990Z,31.37
2022-12-22T04:32:43.154Z,27.60
2022-12-22T04:35:10.452Z,30.60
2022-12-22T04:37:37.618Z,36.40
2022-12-22T04:40:04.980Z,35.70
2022-12-22T04:42:32.189Z,29.47
2022-12-22T04:44:59.343Z,24.83
2022-12-22T04:47:26.463Z,21.87
2022-12-22T04:49:55.712Z,24.00
2022-12-22T04:52:23.047Z,26.30
2022-12-22T04:54:50.248Z,30.43
2022-12-22T04:57:17.449Z,25.73
2022-12-22T04:59:44.581Z,32.67
2022-12-22T05:02:12.211Z,34.10
2022-12-22T05:04:39.621Z,36.50
2022-12-22T05:07:07.798Z,37.40
2022-12-22T05:09:34.994Z,35.93
2022-12-22T05:12:22.143Z,34.30
2022-12-22T05:14:49.688Z,35.37
2022-12-22T05:17:16.921Z,41.73
2022-12-22T05:19:44.159Z,52.57
2022-12-22T05:22:11.344Z,52.83
2022-12-22T05:24:38.493Z,43.43
2022-12-22T05:27:05.737Z,33.97
2022-12-22T05:29:32.946Z,40.10
2022-12-22T05:32:00.155Z,49.47
2022-12-22T05:34:27.431Z,52.97
2022-12-22T05:36:54.615Z,75.63
2022-12-22T05:39:21.786Z,70.80
2022-12-22T05:41:48.989Z,43.40
2022-12-22T05:44:16.175Z,49.00
2022-12-22T05:46:43.345Z,38.03
2022-12-22T05:49:10.633Z,28.90
2022-12-22T05:51:37.804Z,35.70
2022-12-22T05:54:04.944Z,38.27
2022-12-22T05:56:32.111Z,138.13
2022-12-22T05:58:59.275Z,144.30
2022-12-22T06:01:26.509Z,120.13
2022-12-22T06:03:59.702Z,97.43
2022-12-22T06:06:27.386Z,90.50
2022-12-22T06:08:54.522Z,94.93
2022-12-22T06:11:21.669Z,89.90
2022-12-22T06:13:51.184Z,89.57
2022-12-22T06:16:18.396Z,83.17
2022-12-22T06:18:45.635Z,82.43
2022-12-22T06:21:12.810Z,87.00
2022-12-22T06:23:39.996Z,74.33
2022-12-22T06:26:07.120Z,72.33
2022-12-22T06:28:34.256Z,68.10
2022-12-22T06:31:01.453Z,74.43
2022-12-22T06:33:28.616Z,66.83
2022-12-22T06:35:58.949Z,66.83
2022-12-22T06:38:27.482Z,67.57
2022-12-22T06:40:54.611Z,57.20
2022-12-22T06:43:21.773Z,46.33
2022-12-22T06:45:48.921Z,48.43
2022-12-22T06:48:16.138Z,45.90
2022-12-22T06:50:43.317Z,45.60
2022-12-22T06:53:10.537Z,46.17
2022-12-22T06:55:37.781Z,45.37
2022-12-22T06:58:05.346Z,47.57
2022-12-22T07:00:32.534Z,50.17
2022-12-22T07:02:59.924Z,57.13
2022-12-22T07:05:27.503Z,58.10
2022-12-22T07:07:54.735Z,56.37
2022-12-22T07:10:41.863Z,56.37
2022-12-22T07:13:19.738Z,67.67
2022-12-22T07:15:48.928Z,83.63
2022-12-22T07:18:19.487Z,79.73
2022-12-22T07:20:46.660Z,76.63
2022-12-22T07:23:13.841Z,68.20
2022-12-22T07:25:41.117Z,58.80
2022-12-22T07:28:08.278Z,75.17
2022-12-22T07:30:36.799Z,77.93
2022-12-22T07:33:04.439Z,65.73
2022-12-22T07:35:31.589Z,53.53
2022-12-22T07:37:58.750Z,51.97
2022-12-22T07:40:26.005Z,61.17
2022-12-22T07:42:59.805Z,67.87
2022-12-22T07:45:26.973Z,69.10
2022-12-22T07:47:59.225Z,71.97
2022-12-22T07:50:27.894Z,58.00
2022-12-22T07:52:55.814Z,80.17
2022-12-22T07:55:23.357Z,58.83
2022-12-22T07:57:50.541Z,48.47
2022-12-22T08:00:17.917Z,58.80
2022-12-22T08:02:49.262Z,64.27
2022-12-22T08:05:16.754Z,79.83
2022-12-22T08:07:43.973Z,68.03
2022-12-22T08:10:11.322Z,58.83
2022-12-22T08:12:38.860Z,61.60
2022-12-22T08:15:07.040Z,56.23
2022-12-22T08:17:34.180Z,53.40
2022-12-22T08:20:01.374Z,60.13
2022-12-22T08:22:30.165Z,52.13
2022-12-22T08:24:57.475Z,75.07
2022-12-22T08:27:28.478Z,69.90
2022-12-22T08:29:56.810Z,80.33
2022-12-22T08:32:23.957Z,80.13
2022-12-22T08:34:51.208Z,78.30
2022-12-22T08:37:18.820Z,98.10
2022-12-22T08:39:46.836Z,66.20
2022-12-22T08:42:14.549Z,63.40
2022-12-22T08:44:41.718Z,56.13
2022-12-22T08:47:14.850Z,79.00
2022-12-22T08:49:43.953Z,116.70
2022-12-22T08:52:17.822Z,108.43
2022-12-22T08:54:45.674Z,105.80
2022-12-22T08:57:12.811Z,112.97
2022-12-22T08:59:39.973Z,132.87
2022-12-22T09:02:07.294Z,151.03
2022-12-22T09:04:34.737Z,152.00
2022-12-22T09:07:04.887Z,145.57
2022-12-22T09:09:34.956Z,160.03
2022-12-22T09:12:02.809Z,156.77
2022-12-22T09:14:30.424Z,135.30
2022-12-22T09:16:57.677Z,131.17
2022-12-22T09:19:24.855Z,121.77
2022-12-22T09:21:52.000Z,124.07
2022-12-22T09:24:19.373Z,136.90
2022-12-22T09:26:46.578Z,124.80
2022-12-22T09:29:15.377Z,126.85
2022-12-22T09:31:42.898Z,125.37
2022-12-22T09:34:16.861Z,128.93
2022-12-22T09:36:45.052Z,133.73
2022-12-22T09:39:12.334Z,122.70
2022-12-22T09:41:48.569Z,125.40
2022-12-22T09:44:26.283Z,120.78
2022-12-22T09:46:54.241Z,112.28
2022-12-22T09:49:22.647Z,89.80
2022-12-22T09:51:50.764Z,85.60
2022-12-22T09:54:17.947Z,70.97
2022-12-22T09:56:45.148Z,56.70
2022-12-22T09:59:15.805Z,53.30
2022-12-22T10:01:47.848Z,48.50
2022-12-22T10:04:18.136Z,52.15
2022-12-22T10:06:50.900Z,55.00
2022-12-22T10:09:48.792Z,60.67
2022-12-22T10:12:14.995Z,57.17
2022-12-22T10:14:42.830Z,52.78
2022-12-22T10:17:16.075Z,47.20
2022-12-22T10:19:43.474Z,46.88
2022-12-22T10:22:28.987Z,53.83
2022-12-22T10:24:56.192Z,55.08
2022-12-22T10:27:28.685Z,60.20
2022-12-22T10:29:56.803Z,54.50
2022-12-22T10:32:24.011Z,54.88
2022-12-22T10:35:17.563Z,48.53
2022-12-22T10:37:44.689Z,47.85
2022-12-22T10:40:22.159Z,48.17
2022-12-22T10:42:51.411Z,55.78
2022-12-22T10:45:22.500Z,64.55
2022-12-22T10:47:50.564Z,53.85
2022-12-22T10:50:17.717Z,42.20
2022-12-22T10:52:50.506Z,38.85
2022-12-22T10:55:28.639Z,42.15
2022-12-22T10:58:11.170Z,35.90
2022-12-22T11:00:38.896Z,36.30
2022-12-22T11:03:07.882Z,35.00
2022-12-22T11:05:35.287Z,39.63
2022-12-22T11:08:03.508Z,40.80
2022-12-22T11:10:34.938Z,33.40
2022-12-22T11:13:20.942Z,30.75
2022-12-22T11:15:53.862Z,34.10
2022-12-22T11:18:39.631Z,31.73
2022-12-22T11:21:17.326Z,21.90
2022-12-22T11:23:49.260Z,10.68
2022-12-22T11:26:19.128Z,6.65
2022-12-22T11:29:04.867Z,6.07
2022-12-22T11:31:32.197Z,5.88
2022-12-22T11:34:21.256Z,6.72
2022-12-22T11:36:56.621Z,5.40
2022-12-22T11:39:43.312Z,5.28
2022-12-22T11:42:19.767Z,4.93
2022-12-22T11:44:58.933Z,5.03
2022-12-22T11:47:26.363Z,5.80
2022-12-22T11:50:46.040Z,5.90
2022-12-22T11:53:04.932Z,5.82
2022-12-22T11:55:34.677Z,7.95
2022-12-22T11:58:24.303Z,9.93
2022-12-22T12:01:15.406Z,8.43
2022-12-22T12:03:51.142Z,7.90
2022-12-22T12:06:36.705Z,15.55
2022-12-22T12:09:06.979Z,12.73
2022-12-22T12:11:36.774Z,16.08
2022-12-22T12:14:22.731Z,23.38
2022-12-22T12:16:55.842Z,26.77
2022-12-22T12:19:35.284Z,21.63
2022-12-22T12:22:02.801Z,23.05
2022-12-22T12:24:48.741Z,14.55
2022-12-22T12:27:19.153Z,5.47
2022-12-22T12:30:36.435Z,4.10
2022-12-22T12:32:55.738Z,5.90
2022-12-22T12:35:29.224Z,4.63
2022-12-22T12:37:57.946Z,4.15
2022-12-22T12:40:43.365Z,5.53
2022-12-22T12:43:16.277Z,5.25
2022-12-22T12:45:45.272Z,6.45
2022-12-22T12:48:21.351Z,10.15
2022-12-22T12:50:48.467Z,9.43
2022-12-22T12:53:15.933Z,19.67
2022-12-22T12:55:48.944Z,19.27
2022-12-22T12:58:39.058Z,5.95
2022-12-22T13:01:24.991Z,9.77
2022-12-22T13:04:03.018Z,16.23
2022-12-22T13:06:49.886Z,22.65
2022-12-22T13:12:26.982Z,25.15
2022-12-22T13:15:01.725Z,27.60
2022-12-22T13:17:47.948Z,21.20
2022-12-22T13:20:16.167Z,23.40
2022-12-22T13:22:43.546Z,5.65
2022-12-22T13:25:16.806Z,4.15
2022-12-22T13:27:43.959Z,4.65
2022-12-22T13:30:17.827Z,5.68
2022-12-22T13:32:45.923Z,7.35
2022-12-22T13:35:53.380Z,5.85
2022-12-22T13:38:31.028Z,5.40
2022-12-22T13:41:01.532Z,5.43
2022-12-22T13:43:29.035Z,7.55
2022-12-22T13:45:56.533Z,17.92
2022-12-22T13:48:44.795Z,10.18
2022-12-22T13:51:18.634Z,4.78
2022-12-22T13:54:07.802Z,16.65
2022-12-22T13:56:40.057Z,11.35
2022-12-22T13:59:12.877Z,10.30
2022-12-22T14:01:49.121Z,6.75
2022-12-22T14:04:16.530Z,5.53
2022-12-22T14:06:43.801Z,7.90
2022-12-22T14:09:18.384Z,7.25
2022-12-22T14:11:52.463Z,7.97
2022-12-22T14:14:21.560Z,9.05
2022-12-22T14:16:49.684Z,13.75
2022-12-22T14:19:17.385Z,8.60
2022-12-22T14:21:45.228Z,16.85
2022-12-22T14:24:17.475Z,16.60
2022-12-22T14:26:44.654Z,16.30
2022-12-22T14:29:15.048Z,18.92
2022-12-22T14:31:55.201Z,22.48
2022-12-22T14:34:26.123Z,22.15
2022-12-22T14:36:54.310Z,20.08
2022-12-22T14:39:25.470Z,26.98
2022-12-22T14:41:53.812Z,26.83
2022-12-22T14:44:21.042Z,45.38
2022-12-22T14:46:49.812Z,26.65
2022-12-22T14:49:17.907Z,30.52
2022-12-22T14:51:58.983Z,29.98
2022-12-22T14:54:28.127Z,26.85
2022-12-22T14:56:57.974Z,51.90
2022-12-22T14:59:26.268Z,70.33
2022-12-22T15:01:57.729Z,35.50
2022-12-22T15:04:24.961Z,5.30
2022-12-22T15:06:52.119Z,7.13
2022-12-22T15:10:04.141Z,18.45
2022-12-22T15:12:18.448Z,12.18
2022-12-22T15:14:47.939Z,12.27
2022-12-22T15:17:33.167Z,3.40
2022-12-22T15:20:00.566Z,15.10
2022-12-22T15:22:27.874Z,16.75
2022-12-22T15:24:55.036Z,5.90
2022-12-22T15:27:22.226Z,4.80
2022-12-22T15:29:49.396Z,5.45
2022-12-22T15:32:16.586Z,8.25
2022-12-22T15:34:43.815Z,9.70
2022-12-22T15:37:14.072Z,4.15
2022-12-22T15:39:41.329Z,6.60
2022-12-22T15:42:08.547Z,5.85
2022-12-22T15:44:38.850Z,6.05
2022-12-22T15:47:06.562Z,6.18
2022-12-22T15:49:33.763Z,6.45
2022-12-22T15:52:01.782Z,5.55
2022-12-22T15:54:28.995Z,5.47
2022-12-22T15:56:56.154Z,4.93
2022-12-22T15:59:25.638Z,8.38
2022-12-22T16:02:00.277Z,6.85
2022-12-22T16:04:28.464Z,17.15
2022-12-22T16:06:55.802Z,11.38
2022-12-22T16:09:24.394Z,7.28
2022-12-22T16:11:51.562Z,6.85
2022-12-22T16:14:18.742Z,17.80
2022-12-22T16:16:47.167Z,5.47
2022-12-22T16:19:14.712Z,4.88
2022-12-22T16:21:41.880Z,5.50
2022-12-22T16:24:09.473Z,7.13
2022-12-22T16:26:36.632Z,7.28
2022-12-22T16:29:03.758Z,8.15
2022-12-22T16:31:31.015Z,6.38
2022-12-22T16:33:58.233Z,6.28
2022-12-22T16:36:25.353Z,5.75
2022-12-22T16:38:52.476Z,9.82
2022-12-22T16:41:23.414Z,9.43
2022-12-22T16:43:50.669Z,7.78
2022-12-22T16:46:19.224Z,7.78
2022-12-22T16:48:47.579Z,7.07
2022-12-22T16:51:25.094Z,10.70
2022-12-22T16:53:52.322Z,9.68
2022-12-22T16:56:20.362Z,9.40
2022-12-22T16:58:47.832Z,10.18
2022-12-22T17:01:21.372Z,18.17
2022-12-22T17:03:48.657Z,11.18
2022-12-22T17:06:15.980Z,8.70
2022-12-22T17:08:43.217Z,39.70
2022-12-22T17:11:11.491Z,22.23
2022-12-22T17:13:38.727Z,17.27
2022-12-22T17:16:06.183Z,35.78
2022-12-22T17:18:33.417Z,12.13
2022-12-22T17:21:00.643Z,18.08
2022-12-22T17:23:33.917Z,33.38
2022-12-22T17:26:01.609Z,30.35
2022-12-22T17:28:28.727Z,27.73
2022-12-22T17:30:56.035Z,25.55
2022-12-22T17:33:23.208Z,21.55
2022-12-22T17:35:50.469Z,19.45
2022-12-22T17:38:18.484Z,19.20
2022-12-22T17:40:45.675Z,14.27
2022-12-22T17:43:16.657Z,14.32
2022-12-22T17:45:45.965Z,17.65
2022-12-22T17:48:13.485Z,17.50
2022-12-22T17:50:40.670Z,10.57
2022-12-22T17:53:07.963Z,7.95
2022-12-22T17:56:07.864Z,6.20
2022-12-22T17:58:22.328Z,7.30
2022-12-22T18:00:49.497Z,8.18
2022-12-22T18:03:16.815Z,27.75
2022-12-22T18:05:45.299Z,16.60
2022-12-22T18:08:15.042Z,9.02
2022-12-22T18:10:42.244Z,9.38
2022-12-22T18:13:19.839Z,11.70
2022-12-22T18:15:47.529Z,8.25
2022-12-22T18:18:15.251Z,6.85
2022-12-22T18:20:42.684Z,5.95
2022-12-22T18:23:16.397Z,8.43
2022-12-22T18:25:43.602Z,8.05
2022-12-22T18:28:14.473Z,10.32
2022-12-22T18:30:41.687Z,38.30
2022-12-22T18:33:10.197Z,14.73
2022-12-22T18:35:37.334Z,13.88
2022-12-22T18:38:04.471Z,8.38
2022-12-22T18:40:35.446Z,7.60
2022-12-22T18:43:02.615Z,7.80
2022-12-22T18:45:30.564Z,7.30
2022-12-22T18:47:57.921Z,7.35
2022-12-22T18:50:28.510Z,7.63
2022-12-22T18:52:57.218Z,11.25
2022-12-22T18:55:25.198Z,13.88
2022-12-22T18:57:52.685Z,24.83
2022-12-22T19:00:23.854Z,22.20
2022-12-22T19:02:52.147Z,12.23
2022-12-22T19:05:22.154Z,7.38
2022-12-22T19:07:49.579Z,7.65
2022-12-22T19:10:17.544Z,8.07
2022-12-22T19:12:44.983Z,8.77
2022-12-22T19:15:17.231Z,9.25
2022-12-22T19:17:44.379Z,10.07
2022-12-22T19:20:17.826Z,8.20
2022-12-22T19:22:45.474Z,8.75
2022-12-22T19:25:16.341Z,9.65
2022-12-22T19:27:43.524Z,8.52
2022-12-22T19:30:20.190Z,8.68
2022-12-22T19:32:48.684Z,44.70
2022-12-22T19:35:20.157Z,48.83
2022-12-22T19:37:47.606Z,42.63
2022-12-22T19:40:15.153Z,32.30
2022-12-22T19:42:42.561Z,28.30
2022-12-22T19:45:21.858Z,25.55
2022-12-22T19:47:49.510Z,22.60
2022-12-22T19:50:23.713Z,53.60
2022-12-22T19:52:51.305Z,34.70
2022-12-22T19:55:18.557Z,28.35
2022-12-22T19:57:46.321Z,20.63
2022-12-22T20:00:31.703Z,24.03
2022-12-22T20:02:59.100Z,25.50
2022-12-22T20:05:26.421Z,29.57
2022-12-22T20:07:56.018Z,28.47
2022-12-22T20:10:23.226Z,33.17
2022-12-22T20:12:51.175Z,35.93
2022-12-22T20:15:25.171Z,35.70
2022-12-22T20:17:52.748Z,24.90
2022-12-22T20:20:35.929Z,28.70
2022-12-22T20:23:04.416Z,23.40
2022-12-22T20:25:32.960Z,22.00
2022-12-22T20:28:00.142Z,22.27
2022-12-22T20:30:28.947Z,19.83
2022-12-22T20:32:56.564Z,13.93
2022-12-22T20:35:23.864Z,15.87
2022-12-22T20:37:51.191Z,14.00
2022-12-22T20:40:21.523Z,15.50
2022-12-22T20:42:49.000Z,16.33
2022-12-22T20:45:16.123Z,38.17
2022-12-22T20:47:43.276Z,28.73
2022-12-22T20:50:18.562Z,25.87
2022-12-22T20:52:45.721Z,28.87
2022-12-22T20:55:19.516Z,26.67
2022-12-22T20:57:46.796Z,33.97
2022-12-22T21:00:32.114Z,44.77
2022-12-22T21:02:59.385Z,31.35
2022-12-22T21:05:26.672Z,26.23
2022-12-22T21:07:53.882Z,23.83
2022-12-22T21:10:21.798Z,38.30
2022-12-22T21:12:49.153Z,58.27
2022-12-22T21:15:17.073Z,50.07
2022-12-22T21:17:46.256Z,52.20
2022-12-22T21:20:16.815Z,54.93
2022-12-22T21:22:43.957Z,40.23
2022-12-22T21:25:11.073Z,33.37
2022-12-22T21:27:38.875Z,32.07
2022-12-22T21:30:11.942Z,37.37
2022-12-22T21:32:39.142Z,35.57
2022-12-22T21:35:08.483Z,38.80
2022-12-22T21:37:35.902Z,30.65
2022-12-22T21:40:03.082Z,34.43
2022-12-22T21:42:30.266Z,34.20
2022-12-22T21:44:57.538Z,17.67
2022-12-22T21:47:24.704Z,21.90
2022-12-22T21:49:51.892Z,21.20
2022-12-22T21:52:19.068Z,21.63
2022-12-22T21:54:46.246Z,22.93
2022-12-22T21:57:16.616Z,23.93
2022-12-22T21:59:43.841Z,33.93
2022-12-22T22:02:19.944Z,37.70
2022-12-22T22:04:54.159Z,38.07
2022-12-22T22:07:21.952Z,34.03
2022-12-22T22:09:49.202Z,36.33
2022-12-22T22:12:36.787Z,43.37
2022-12-22T22:15:07.090Z,40.33
2022-12-22T22:17:34.288Z,40.80
2022-12-22T22:20:01.738Z,38.87
2022-12-22T22:22:29.006Z,46.70
2022-12-22T22:24:56.168Z,42.53
2022-12-22T22:27:23.311Z,43.65
2022-12-22T22:29:50.447Z,47.95
2022-12-22T22:32:17.597Z,67.78
2022-12-22T22:34:44.755Z,60.73
2022-12-22T22:37:11.886Z,63.08
2022-12-22T22:39:39.130Z,66.07
2022-12-22T22:42:06.287Z,65.77
2022-12-22T22:44:33.456Z,70.13
2022-12-22T22:47:00.866Z,59.53
2022-12-22T22:49:28.978Z,56.88
2022-12-22T22:51:56.409Z,44.83
2022-12-22T22:54:23.539Z,32.33
2022-12-22T22:56:51.039Z,18.57
2022-12-22T22:59:18.777Z,23.33
2022-12-22T23:01:45.967Z,7.53
2022-12-22T23:04:13.327Z,7.97
2022-12-22T23:06:41.760Z,6.20
2022-12-22T23:09:09.487Z,10.10
2022-12-22T23:11:36.653Z,18.90
2022-12-22T23:14:03.776Z,17.70
2022-12-22T23:16:37.618Z,11.17
2022-12-22T23:19:05.441Z,12.33
2022-12-22T23:21:32.621Z,6.32
2022-12-22T23:23:59.815Z,8.63
2022-12-22T23:26:27.073Z,6.32
2022-12-22T23:28:59.260Z,6.75
2022-12-22T23:31:30.090Z,8.85
2022-12-22T23:33:57.499Z,7.95
2022-12-22T23:36:24.656Z,6.78
2022-12-22T23:38:52.060Z,7.97
2022-12-22T23:41:19.193Z,6.22
2022-12-22T23:43:46.386Z,6.57
2022-12-22T23:46:14.289Z,7.35
2022-12-22T23:48:42.289Z,7.07
2022-12-22T23:51:10.080Z,8.68
2022-12-22T23:53:37.701Z,7.18
2022-12-22T23:56:04.974Z,10.77
2022-12-22T23:58:32.147Z,12.98
